createdAt,value
2023-02-15T00:01:54.456Z,46.99
2023-02-15T00:04:24.290Z,47.43
2023-02-15T00:06:53.910Z,47.75
2023-02-15T00:09:20.522Z,48.25
2023-02-15T00:11:56.678Z,48.42
2023-02-15T00:14:26.232Z,47.83
2023-02-15T00:16:55.750Z,48.50
2023-02-15T00:19:27.322Z,48.92
2023-02-15T00:21:54.252Z,48.39
2023-02-15T00:24:20.799Z,49.01
2023-02-15T00:26:48.495Z,49.78
2023-02-15T00:29:16.688Z,50.42
2023-02-15T00:31:43.548Z,50.54
2023-02-15T00:34:19.645Z,50.00
2023-02-15T00:36:46.620Z,49.78
2023-02-15T00:39:13.515Z,49.95
2023-02-15T00:41:40.212Z,49.39
2023-02-15T00:44:07.272Z,49.27
2023-02-15T00:46:33.885Z,50.02
2023-02-15T00:49:00.519Z,50.26
2023-02-15T00:51:27.469Z,50.60
2023-02-15T00:53:57.278Z,50.79
2023-02-15T00:56:26.326Z,51.16
2023-02-15T00:58:52.914Z,49.44
2023-02-15T01:01:21.008Z,49.70
2023-02-15T01:03:48.105Z,48.65
2023-02-15T01:06:16.561Z,47.65
2023-02-15T01:08:44.339Z,47.49
2023-02-15T01:11:14.076Z,47.81
2023-02-15T01:13:41.854Z,47.82
2023-02-15T01:16:09.429Z,47.57
2023-02-15T01:18:36.583Z,47.70
2023-02-15T01:21:11.615Z,47.73
2023-02-15T01:23:38.313Z,47.51
2023-02-15T01:26:04.984Z,47.85
2023-02-15T01:28:32.376Z,47.89
2023-02-15T01:31:00.247Z,48.19
2023-02-15T01:33:29.529Z,46.99
2023-02-15T01:36:00.270Z,45.65
2023-02-15T01:38:30.342Z,44.88
2023-02-15T01:41:20.527Z,44.82
2023-02-15T01:43:49.744Z,45.46
2023-02-15T01:46:19.017Z,45.42
2023-02-15T01:48:53.465Z,46.94
2023-02-15T01:51:23.923Z,48.35
2023-02-15T01:53:58.804Z,48.79
2023-02-15T01:56:34.421Z,48.83
2023-02-15T01:59:06.702Z,48.40
2023-02-15T02:01:33.252Z,48.12
2023-02-15T02:04:05.498Z,48.42
2023-02-15T02:06:34.323Z,47.76
2023-02-15T02:09:01.166Z,48.17
2023-02-15T02:11:31.242Z,48.45
2023-02-15T02:14:00.236Z,48.10
2023-02-15T02:16:43.710Z,47.07
2023-02-15T02:19:31.250Z,46.76
2023-02-15T02:22:15.647Z,46.38
2023-02-15T02:24:56.164Z,46.85
2023-02-15T02:27:44.066Z,46.75
2023-02-15T02:30:57.757Z,47.07
2023-02-15T02:33:33.624Z,46.73
2023-02-15T02:36:12.350Z,47.35
2023-02-15T02:39:03.395Z,47.76
2023-02-15T02:41:44.152Z,48.62
2023-02-15T02:44:25.681Z,48.88
2023-02-15T02:47:37.784Z,48.85
2023-02-15T02:50:10.973Z,49.25
2023-02-15T02:52:40.180Z,49.00
2023-02-15T02:55:28.854Z,49.67
2023-02-15T02:58:06.683Z,49.74
2023-02-15T03:00:40.132Z,50.78
2023-02-15T03:03:25.702Z,51.29
2023-02-15T03:05:56.036Z,52.00
2023-02-15T03:08:28.873Z,51.93
2023-02-15T03:10:58.229Z,53.37
2023-02-15T03:13:25.206Z,53.01
2023-02-15T03:16:12.203Z,52.86
2023-02-15T03:18:53.685Z,53.09
2023-02-15T03:21:24.346Z,53.67
2023-02-15T03:23:58.540Z,53.86
2023-02-15T03:26:27.843Z,53.85
2023-02-15T03:28:57.922Z,53.15
2023-02-15T03:31:28.291Z,52.63
2023-02-15T03:34:11.773Z,52.06
2023-02-15T03:36:50.471Z,51.04
2023-02-15T03:39:34.888Z,49.76
2023-02-15T03:42:19.798Z,49.50
2023-02-15T03:45:10.482Z,48.96
2023-02-15T03:47:44.295Z,49.32
2023-02-15T03:50:43.937Z,49.36
2023-02-15T03:53:14.995Z,50.37
2023-02-15T03:55:41.727Z,50.36
2023-02-15T03:58:27.075Z,50.91
2023-02-15T04:01:19.229Z,50.87
2023-02-15T04:04:20.331Z,50.79
2023-02-15T04:06:47.481Z,50.17
2023-02-15T04:09:33.201Z,49.70
2023-02-15T04:12:00.149Z,49.72
2023-02-15T04:14:45.230Z,50.13
2023-02-15T04:17:11.757Z,48.73
2023-02-15T04:19:56.846Z,48.81
2023-02-15T04:22:41.826Z,48.11
2023-02-15T04:25:14.175Z,48.76
2023-02-15T04:27:44.270Z,48.14
2023-02-15T04:30:12.729Z,48.02
2023-02-15T04:32:39.670Z,49.28
2023-02-15T04:35:10.391Z,49.95
2023-02-15T04:37:40.511Z,50.83
2023-02-15T04:40:13.209Z,51.27
2023-02-15T04:42:39.716Z,51.88
2023-02-15T04:45:10.582Z,51.91
2023-02-15T04:47:40.542Z,51.75
2023-02-15T04:50:11.433Z,51.64
2023-02-15T04:52:41.125Z,51.96
2023-02-15T04:55:11.113Z,51.65
2023-02-15T04:57:40.752Z,51.63
2023-02-15T05:00:11.504Z,51.77
2023-02-15T05:02:39.719Z,52.08
2023-02-15T05:05:06.552Z,51.83
2023-02-15T05:07:33.129Z,52.11
2023-02-15T05:09:59.613Z,52.70
2023-02-15T05:12:26.070Z,52.81
2023-02-15T05:14:52.802Z,52.67
2023-02-15T05:17:19.259Z,52.46
2023-02-15T05:19:45.755Z,53.32
2023-02-15T05:22:12.305Z,53.33
2023-02-15T05:24:57.569Z,53.19
2023-02-15T05:27:42.483Z,52.88
2023-02-15T05:30:12.764Z,52.68
2023-02-15T05:32:44.501Z,52.84
2023-02-15T05:35:16.314Z,53.18
2023-02-15T05:37:42.835Z,53.58
2023-02-15T05:40:13.669Z,53.48
2023-02-15T05:42:43.327Z,54.14
2023-02-15T05:45:14.104Z,54.22
2023-02-15T05:47:44.852Z,54.29
2023-02-15T05:50:12.483Z,54.77
2023-02-15T05:52:38.950Z,54.72
2023-02-15T05:55:06.341Z,55.48
2023-02-15T05:57:33.125Z,55.82
2023-02-15T05:59:59.586Z,55.83
2023-02-15T06:02:26.189Z,55.85
2023-02-15T06:04:52.707Z,55.37
2023-02-15T06:07:19.305Z,55.93
2023-02-15T06:09:45.808Z,55.84
2023-02-15T06:12:15.397Z,55.30
2023-02-15T06:14:44.944Z,55.50
2023-02-15T06:17:15.258Z,54.96
2023-02-15T06:22:33.395Z,54.54
2023-02-15T06:24:59.904Z,54.67
2023-02-15T06:27:26.410Z,54.72
2023-02-15T06:29:53.066Z,54.67
2023-02-15T06:32:19.586Z,54.66
2023-02-15T06:34:47.483Z,54.90
2023-02-15T06:37:15.052Z,55.21
2023-02-15T06:39:45.081Z,55.54
2023-02-15T06:42:14.372Z,55.26
2023-02-15T06:44:43.242Z,55.18
2023-02-15T06:47:09.877Z,55.46
2023-02-15T06:49:36.390Z,55.17
2023-02-15T06:52:03.108Z,55.48
2023-02-15T06:54:29.603Z,54.78
2023-02-15T06:56:56.271Z,55.07
2023-02-15T06:59:22.872Z,55.00
2023-02-15T07:01:50.198Z,55.22
2023-02-15T07:04:17.000Z,54.11
2023-02-15T07:06:44.143Z,51.04
2023-02-15T07:09:18.022Z,50.53
2023-02-15T07:12:03.163Z,49.94
2023-02-15T07:14:29.743Z,49.61
2023-02-15T07:16:56.314Z,49.05
2023-02-15T07:19:22.849Z,48.84
2023-02-15T07:21:49.396Z,48.15
2023-02-15T07:24:15.975Z,48.83
2023-02-15T07:26:45.509Z,48.83
2023-02-15T07:29:16.416Z,47.09
2023-02-15T07:31:46.332Z,45.47
2023-02-15T07:34:16.910Z,45.32
2023-02-15T07:36:47.686Z,44.84
2023-02-15T07:39:14.269Z,43.49
2023-02-15T07:41:41.800Z,43.10
2023-02-15T07:44:14.369Z,41.69
2023-02-15T07:46:42.769Z,39.43
2023-02-15T07:49:09.442Z,38.91
2023-02-15T07:51:35.950Z,38.13
2023-02-15T07:54:02.448Z,36.08
2023-02-15T07:56:31.772Z,36.75
2023-02-15T07:59:03.953Z,37.77
2023-02-15T08:01:33.401Z,38.20
2023-02-15T08:04:00.776Z,38.69
2023-02-15T08:06:29.643Z,38.50
2023-02-15T08:08:56.278Z,39.10
2023-02-15T08:11:37.160Z,38.97
2023-02-15T08:14:07.998Z,36.26
2023-02-15T08:16:36.401Z,36.39
2023-02-15T08:19:11.757Z,37.28
2023-02-15T08:21:43.606Z,37.96
2023-02-15T08:24:13.032Z,37.85
2023-02-15T08:26:42.658Z,38.26
2023-02-15T08:29:13.164Z,38.20
2023-02-15T08:31:46.657Z,38.40
2023-02-15T08:34:19.277Z,37.58
2023-02-15T08:36:48.567Z,37.48
2023-02-15T08:39:16.572Z,37.74
2023-02-15T08:41:45.315Z,38.52
2023-02-15T08:44:16.363Z,38.81
2023-02-15T08:46:47.215Z,40.07
2023-02-15T08:49:17.669Z,39.95
2023-02-15T08:51:44.211Z,40.23
2023-02-15T08:54:17.411Z,39.88
2023-02-15T08:56:45.098Z,40.45
2023-02-15T08:59:22.964Z,40.00
2023-02-15T09:01:51.773Z,39.69
2023-02-15T09:04:18.617Z,39.06
2023-02-15T09:06:48.546Z,38.29
2023-02-15T09:09:16.970Z,38.76
2023-02-15T09:11:49.284Z,38.17
2023-02-15T09:14:18.696Z,36.76
2023-02-15T09:16:49.550Z,36.99
2023-02-15T09:19:18.325Z,36.82
2023-02-15T09:21:44.916Z,36.55
2023-02-15T09:24:15.185Z,37.56
2023-02-15T09:26:47.310Z,36.86
2023-02-15T09:29:17.660Z,36.59
2023-02-15T09:31:47.175Z,36.96
2023-02-15T09:34:18.792Z,37.19
2023-02-15T09:36:45.908Z,37.37
2023-02-15T09:39:22.003Z,36.33
2023-02-15T09:42:12.728Z,37.60
2023-02-15T09:45:10.221Z,36.99
2023-02-15T09:47:55.901Z,36.76
2023-02-15T09:50:22.394Z,36.02
2023-02-15T09:53:00.746Z,35.48
2023-02-15T09:55:46.219Z,36.67
2023-02-15T09:58:38.994Z,35.28
2023-02-15T10:01:23.210Z,34.37
2023-02-15T10:04:01.860Z,34.58
2023-02-15T10:06:47.272Z,34.78
2023-02-15T10:09:55.096Z,34.30
2023-02-15T10:12:58.382Z,34.61
2023-02-15T10:15:46.456Z,34.88
2023-02-15T10:18:30.865Z,34.13
2023-02-15T10:21:14.321Z,34.07
2023-02-15T10:23:49.705Z,33.80
2023-02-15T10:26:19.823Z,33.49
2023-02-15T10:28:58.453Z,32.66
2023-02-15T10:31:25.071Z,30.98
2023-02-15T10:34:07.976Z,29.63
2023-02-15T10:36:43.601Z,28.61
2023-02-15T10:39:39.950Z,27.95
2023-02-15T10:42:16.653Z,27.71
2023-02-15T10:44:58.245Z,27.30
2023-02-15T10:47:34.694Z,28.18
2023-02-15T10:50:01.226Z,28.13
2023-02-15T10:52:46.612Z,27.43
2023-02-15T10:55:43.362Z,26.16
2023-02-15T10:58:34.480Z,25.67
2023-02-15T11:01:22.354Z,25.67
2023-02-15T11:04:32.649Z,25.62
2023-02-15T11:07:07.241Z,26.71
2023-02-15T11:09:48.326Z,24.71
2023-02-15T11:12:21.177Z,26.12
2023-02-15T11:14:52.445Z,26.05
2023-02-15T11:17:26.626Z,24.27
2023-02-15T11:20:03.855Z,25.56
2023-02-15T11:22:33.173Z,24.08
2023-02-15T11:25:02.599Z,25.03
2023-02-15T11:27:36.117Z,24.89
2023-02-15T11:30:06.597Z,24.74
2023-02-15T11:32:44.639Z,25.36
2023-02-15T11:35:13.501Z,24.50
2023-02-15T11:37:39.960Z,24.99
2023-02-15T11:40:21.706Z,24.24
2023-02-15T11:42:51.017Z,24.34
2023-02-15T11:45:35.849Z,23.58
2023-02-15T11:48:11.767Z,23.58
2023-02-15T11:50:38.658Z,21.86
2023-02-15T11:53:16.781Z,23.56
2023-02-15T11:55:49.234Z,21.91
2023-02-15T11:58:24.596Z,20.66
2023-02-15T12:00:56.679Z,20.89
2023-02-15T12:03:38.993Z,20.61
2023-02-15T12:06:13.155Z,20.09
2023-02-15T12:08:43.445Z,20.33
2023-02-15T12:11:21.534Z,19.56
2023-02-15T12:14:02.905Z,19.84
2023-02-15T12:16:35.187Z,20.84
2023-02-15T12:19:03.082Z,20.97
2023-02-15T12:21:43.295Z,20.65
2023-02-15T12:24:25.920Z,19.93
2023-02-15T12:27:17.565Z,20.42
2023-02-15T12:29:49.435Z,20.59
2023-02-15T12:32:32.397Z,20.07
2023-02-15T12:35:14.942Z,21.49
2023-02-15T12:37:54.735Z,20.46
2023-02-15T12:40:31.388Z,21.17
2023-02-15T12:42:58.763Z,20.12
2023-02-15T12:45:29.653Z,19.60
2023-02-15T12:48:18.574Z,20.38
2023-02-15T12:50:57.226Z,19.46
2023-02-15T12:53:31.224Z,20.55
2023-02-15T12:56:06.364Z,20.51
2023-02-15T12:59:05.170Z,21.65
2023-02-15T13:01:33.377Z,21.90
2023-02-15T13:04:03.880Z,21.15
2023-02-15T13:06:34.510Z,19.25
2023-02-15T13:09:18.753Z,19.64
2023-02-15T13:11:47.050Z,19.49
2023-02-15T13:14:23.086Z,19.61
2023-02-15T13:16:53.333Z,18.56
2023-02-15T13:19:32.936Z,18.90
2023-02-15T13:22:06.157Z,19.54
2023-02-15T13:24:48.909Z,20.24
2023-02-15T13:27:20.027Z,20.19
2023-02-15T13:29:52.448Z,19.93
2023-02-15T13:32:33.935Z,19.98
2023-02-15T13:35:03.165Z,19.48
2023-02-15T13:37:49.761Z,20.20
2023-02-15T13:40:27.233Z,19.69
2023-02-15T13:43:17.831Z,20.67
2023-02-15T13:45:59.596Z,20.67
2023-02-15T13:48:54.124Z,21.18
2023-02-15T13:51:52.664Z,19.66
2023-02-15T13:54:37.546Z,19.99
2023-02-15T13:57:34.802Z,20.22
2023-02-15T14:00:22.330Z,19.72
2023-02-15T14:02:57.700Z,19.75
2023-02-15T14:05:41.589Z,19.96
2023-02-15T14:08:38.507Z,19.99
2023-02-15T14:11:11.081Z,19.55
2023-02-15T14:13:54.020Z,20.62
2023-02-15T14:16:41.934Z,19.41
2023-02-15T14:19:24.029Z,19.31
2023-02-15T14:22:09.076Z,19.40
2023-02-15T14:24:35.695Z,19.97
2023-02-15T14:27:46.165Z,20.26
2023-02-15T14:30:22.358Z,20.06
2023-02-15T14:33:09.886Z,19.34
2023-02-15T14:35:38.215Z,19.48
2023-02-15T14:38:07.702Z,19.30
2023-02-15T14:40:58.942Z,19.49
2023-02-15T14:43:50.056Z,20.35
2023-02-15T14:46:38.540Z,19.90
2023-02-15T14:49:17.700Z,21.24
2023-02-15T14:51:48.152Z,21.90
2023-02-15T14:54:18.274Z,22.69
2023-02-15T14:57:09.530Z,22.64
2023-02-15T14:59:42.431Z,22.86
2023-02-15T15:02:09.267Z,23.04
2023-02-15T15:04:41.387Z,23.35
2023-02-15T15:07:26.532Z,23.68
2023-02-15T15:10:04.900Z,23.80
2023-02-15T15:12:39.548Z,24.43
2023-02-15T15:15:06.481Z,23.73
2023-02-15T15:17:33.486Z,23.81
2023-02-15T15:20:19.649Z,23.67
2023-02-15T15:22:48.729Z,23.75
2023-02-15T15:25:34.686Z,24.09
2023-02-15T15:28:01.190Z,23.51
2023-02-15T15:30:47.751Z,23.43
2023-02-15T15:33:25.101Z,23.85
2023-02-15T15:36:33.033Z,24.61
2023-02-15T15:39:24.438Z,24.44
2023-02-15T15:42:49.034Z,24.33
2023-02-15T15:45:23.496Z,25.04
2023-02-15T15:48:11.715Z,26.75
2023-02-15T15:50:41.773Z,25.83
2023-02-15T15:53:22.644Z,25.85
2023-02-15T15:55:55.957Z,25.77
2023-02-15T15:58:23.657Z,25.84
2023-02-15T16:00:58.786Z,27.37
2023-02-15T16:03:28.296Z,28.09
2023-02-15T16:06:01.168Z,27.83
2023-02-15T16:08:38.156Z,27.37
2023-02-15T16:11:21.898Z,27.96
2023-02-15T16:13:48.504Z,30.48
2023-02-15T16:16:22.330Z,31.79
2023-02-15T16:18:49.658Z,32.45
2023-02-15T16:21:27.871Z,32.55
2023-02-15T16:24:30.429Z,33.79
2023-02-15T16:27:06.044Z,34.95
2023-02-15T16:29:34.443Z,34.36
2023-02-15T16:32:02.276Z,34.48
2023-02-15T16:34:32.104Z,35.31
2023-02-15T16:37:18.045Z,37.37
2023-02-15T16:39:50.011Z,36.68
2023-02-15T16:42:19.539Z,35.77
2023-02-15T16:45:06.386Z,35.49
2023-02-15T16:47:38.164Z,36.05
2023-02-15T16:50:05.722Z,35.16
2023-02-15T16:52:32.613Z,35.45
2023-02-15T16:55:04.759Z,35.72
2023-02-15T16:57:36.140Z,36.45
2023-02-15T17:00:08.272Z,35.58
2023-02-15T17:02:56.457Z,35.21
2023-02-15T17:05:22.612Z,35.63
2023-02-15T17:08:13.136Z,36.14
2023-02-15T17:10:47.418Z,36.48
2023-02-15T17:13:17.584Z,36.16
2023-02-15T17:16:10.113Z,35.91
2023-02-15T17:18:46.753Z,35.49
2023-02-15T17:21:19.695Z,35.48
2023-02-15T17:23:51.441Z,35.34
2023-02-15T17:26:27.691Z,35.72
2023-02-15T17:28:57.734Z,35.29
2023-02-15T17:31:29.502Z,35.32
2023-02-15T17:33:57.643Z,35.44
2023-02-15T17:36:26.547Z,35.23
2023-02-15T17:38:59.051Z,35.46
2023-02-15T17:41:31.421Z,35.47
2023-02-15T17:44:02.381Z,35.77
2023-02-15T17:46:33.410Z,36.05
2023-02-15T17:48:59.951Z,36.39
2023-02-15T17:51:26.554Z,36.02
2023-02-15T17:54:11.431Z,36.17
2023-02-15T17:56:39.317Z,36.83
2023-02-15T17:59:10.238Z,36.81
2023-02-15T18:02:01.470Z,37.93
2023-02-15T18:04:49.610Z,37.80
2023-02-15T18:07:38.437Z,37.82
2023-02-15T18:10:33.035Z,37.82
2023-02-15T18:12:59.541Z,37.68
2023-02-15T18:15:26.093Z,38.12
2023-02-15T18:17:52.888Z,38.13
2023-02-15T18:20:28.205Z,38.45
2023-02-15T18:22:54.982Z,38.26
2023-02-15T18:25:24.297Z,38.16
2023-02-15T18:27:52.831Z,38.59
2023-02-15T18:30:23.553Z,39.58
2023-02-15T18:32:54.734Z,39.85
2023-02-15T18:35:24.576Z,40.22
2023-02-15T18:37:53.375Z,40.09
2023-02-15T18:40:29.189Z,40.45
2023-02-15T18:42:57.122Z,40.54
2023-02-15T18:45:32.826Z,40.44
2023-02-15T18:47:59.483Z,40.38
2023-02-15T18:50:31.049Z,40.83
2023-02-15T18:52:58.527Z,40.47
2023-02-15T18:55:28.034Z,40.71
2023-02-15T18:57:56.674Z,40.90
2023-02-15T19:00:34.896Z,40.35
2023-02-15T19:03:03.097Z,40.61
2023-02-15T19:05:31.986Z,41.00
2023-02-15T19:08:01.094Z,41.12
2023-02-15T19:10:30.629Z,41.17
2023-02-15T19:12:57.762Z,41.44
2023-02-15T19:15:30.632Z,41.71
2023-02-15T19:18:27.304Z,42.08
2023-02-15T19:20:54.333Z,42.79
2023-02-15T19:23:23.964Z,42.83
2023-02-15T19:25:53.391Z,42.88
2023-02-15T19:28:33.533Z,42.47
2023-02-15T19:31:00.220Z,42.81
2023-02-15T19:33:26.939Z,43.49
2023-02-15T19:35:57.422Z,43.71
2023-02-15T19:38:32.492Z,44.21
2023-02-15T19:41:07.255Z,44.40
2023-02-15T19:43:34.735Z,44.87
2023-02-15T19:46:01.712Z,45.09
2023-02-15T19:48:28.461Z,46.10
2023-02-15T19:50:56.933Z,46.54
2023-02-15T19:53:25.982Z,47.23
2023-02-15T19:55:53.146Z,47.26
2023-02-15T19:58:25.480Z,47.65
2023-02-15T20:00:52.013Z,47.28
2023-02-15T20:03:22.693Z,47.97
2023-02-15T20:05:52.296Z,48.83
2023-02-15T20:08:23.257Z,49.03
2023-02-15T20:10:52.975Z,49.63
2023-02-15T20:13:24.433Z,49.44
2023-02-15T20:15:53.858Z,48.89
2023-02-15T20:18:23.063Z,49.60
2023-02-15T20:20:52.453Z,49.43
2023-02-15T20:23:26.174Z,49.46
2023-02-15T20:25:54.391Z,49.33
2023-02-15T20:28:26.469Z,49.89
2023-02-15T20:30:53.384Z,49.54
2023-02-15T20:33:25.325Z,49.44
2023-02-15T20:35:52.323Z,49.78
2023-02-15T20:38:30.995Z,50.86
2023-02-15T20:41:20.534Z,51.12
2023-02-15T20:43:47.185Z,51.60
2023-02-15T20:46:13.840Z,51.66
2023-02-15T20:48:40.461Z,51.89
2023-02-15T20:51:21.836Z,51.71
2023-02-15T20:53:52.449Z,52.49
2023-02-15T20:56:23.821Z,52.54
2023-02-15T20:58:52.268Z,52.04
2023-02-15T21:01:22.903Z,51.50
2023-02-15T21:03:50.433Z,51.29
2023-02-15T21:06:21.390Z,51.83
2023-02-15T21:08:51.137Z,51.53
2023-02-15T21:11:22.552Z,51.69
2023-02-15T21:13:51.129Z,51.84
2023-02-15T21:16:22.056Z,51.62
2023-02-15T21:18:52.865Z,51.43
2023-02-15T21:21:26.175Z,51.77
2023-02-15T21:23:53.735Z,52.15
2023-02-15T21:26:22.569Z,52.28
2023-02-15T21:28:51.252Z,52.90
2023-02-15T21:31:22.287Z,53.53
2023-02-15T21:33:52.463Z,54.57
2023-02-15T21:36:24.316Z,54.31
2023-02-15T21:38:53.963Z,54.33
2023-02-15T21:41:43.003Z,54.21
2023-02-15T21:44:41.504Z,54.88
2023-02-15T21:47:44.095Z,54.52
2023-02-15T21:50:38.276Z,54.30
2023-02-15T21:53:07.162Z,53.66
2023-02-15T21:55:33.680Z,53.18
2023-02-15T21:58:01.092Z,53.00
2023-02-15T22:00:28.646Z,52.86
2023-02-15T22:02:58.435Z,51.25
2023-02-15T22:05:31.266Z,51.61
2023-02-15T22:07:58.049Z,52.33
2023-02-15T22:10:30.298Z,51.90
2023-02-15T22:12:57.320Z,52.77
2023-02-15T22:15:26.951Z,53.20
2023-02-15T22:17:53.946Z,53.84
2023-02-15T22:20:24.206Z,53.00
2023-02-15T22:22:56.161Z,53.89
2023-02-15T22:25:26.692Z,54.17
2023-02-15T22:27:54.937Z,54.33
2023-02-15T22:30:29.006Z,53.84
2023-02-15T22:32:57.888Z,53.47
2023-02-15T22:35:28.413Z,54.47
2023-02-15T22:37:55.607Z,55.10
2023-02-15T22:40:28.042Z,55.59
2023-02-15T22:43:00.920Z,56.01
2023-02-15T22:45:31.084Z,55.49
2023-02-15T22:48:00.226Z,55.40
2023-02-15T22:50:30.341Z,54.97
2023-02-15T22:52:59.738Z,54.24
2023-02-15T22:56:03.545Z,53.48
2023-02-15T22:58:30.151Z,53.36
2023-02-15T23:00:58.002Z,54.07
2023-02-15T23:03:28.972Z,53.62
2023-02-15T23:05:56.642Z,53.65
2023-02-15T23:08:26.700Z,53.71
2023-02-15T23:10:59.004Z,53.59
2023-02-15T23:13:33.110Z,54.60
2023-02-15T23:16:02.522Z,55.11
2023-02-15T23:18:33.304Z,56.64
2023-02-15T23:21:16.595Z,57.86
2023-02-15T23:23:45.518Z,57.99
2023-02-15T23:26:28.611Z,59.11
2023-02-15T23:28:58.946Z,59.48
2023-02-15T23:31:31.430Z,59.89
2023-02-15T23:34:00.684Z,59.96
2023-02-15T23:36:33.741Z,59.48
2023-02-15T23:39:31.482Z,59.47
2023-02-15T23:42:00.590Z,59.65
2023-02-15T23:44:27.789Z,59.89
2023-02-15T23:46:58.729Z,59.31
2023-02-15T23:49:26.190Z,58.99
2023-02-15T23:51:54.639Z,58.65
2023-02-15T23:54:23.927Z,58.86
2023-02-15T23:57:00.395Z,59.29
2023-02-15T23:59:32.334Z,59.32
